Meerhout, Belgium
Current Conditions -  °F | °C
As of 8:03 PM on Monday 20 Oct 2014 (Local Time) from EBDT Reporting Station
Scattered Clouds Scattered Clouds  
Wind Chill: 57°   Ceiling: Unl
Heat Index: 57°   Visibility: 4mi
Dew Point: 54°   Wind: 5mph
Humidity: 88%   Direction: 220°SW
Pressure: 29.97"   Gusts: NA
Location:  51.13°N, 5.08°E
Report Text: EBDT 201803Z AUTO 22004KT 7000 FEW026/// SCT060/// 14/12 Q1015 WHT
Loading
Personal Weather Stations






























Interactive Weather Map
Tropical Storm Tracking
New forecast layout! Learn more

10-Day Weather Forecast

Advertisements
Track Severe Weather on mobile